createdAt,value
2023-01-08T00:00:30.806Z,94.23
2023-01-08T00:01:32.708Z,93.84
2023-01-08T00:02:34.529Z,93.72
2023-01-08T00:03:37.064Z,94.20
2023-01-08T00:04:38.974Z,93.57
2023-01-08T00:05:41.000Z,93.61
2023-01-08T00:06:42.861Z,93.58
2023-01-08T00:07:44.693Z,93.84
2023-01-08T00:08:46.442Z,93.68
2023-01-08T00:09:50.778Z,93.28
2023-01-08T00:10:56.182Z,93.61
2023-01-08T00:11:58.069Z,93.56
2023-01-08T00:12:59.960Z,93.84
2023-01-08T00:14:01.786Z,93.48
2023-01-08T00:15:04.158Z,93.73
2023-01-08T00:16:07.040Z,93.08
2023-01-08T00:17:09.015Z,93.10
2023-01-08T00:18:10.806Z,92.27
2023-01-08T00:19:13.420Z,92.77
2023-01-08T00:20:15.301Z,93.01
2023-01-08T00:21:17.177Z,92.68
2023-01-08T00:22:19.067Z,93.14
2023-01-08T00:23:20.895Z,92.87
2023-01-08T00:24:22.794Z,92.75
2023-01-08T00:25:24.631Z,93.32
2023-01-08T00:26:26.517Z,93.44
2023-01-08T00:27:28.383Z,93.30
2023-01-08T00:28:30.301Z,93.51
2023-01-08T00:29:32.112Z,93.31
2023-01-08T00:30:34.141Z,93.80
2023-01-08T00:31:35.969Z,93.69
2023-01-08T00:32:37.995Z,93.77
2023-01-08T00:33:40.536Z,93.81
2023-01-08T00:34:42.299Z,93.85
2023-01-08T00:35:44.123Z,93.84
2023-01-08T00:36:45.880Z,93.53
2023-01-08T00:37:49.723Z,94.15
2023-01-08T00:38:51.544Z,93.64
2023-01-08T00:39:53.398Z,93.81
2023-01-08T00:40:55.435Z,93.99
2023-01-08T00:41:57.255Z,93.51
2023-01-08T00:42:59.130Z,93.49
2023-01-08T00:44:00.973Z,93.86
2023-01-08T00:45:02.732Z,93.36
2023-01-08T00:46:04.872Z,93.17
2023-01-08T00:47:06.894Z,93.38
2023-01-08T00:48:08.751Z,93.56
2023-01-08T00:49:10.566Z,93.18
2023-01-08T00:50:12.428Z,93.77
2023-01-08T00:51:14.223Z,93.63
2023-01-08T00:52:16.043Z,93.27
2023-01-08T00:53:18.322Z,92.82
2023-01-08T00:54:20.134Z,93.60
2023-01-08T00:55:22.043Z,93.46
2023-01-08T00:56:23.868Z,93.19
2023-01-08T00:57:25.652Z,93.23
2023-01-08T00:58:27.595Z,93.37
2023-01-08T00:59:29.481Z,93.45
2023-01-08T01:00:31.223Z,94.37
2023-01-08T01:01:33.183Z,94.18
2023-01-08T01:02:36.957Z,93.83
2023-01-08T01:03:39.044Z,93.26
2023-01-08T01:04:40.883Z,93.41
2023-01-08T01:05:42.743Z,93.84
2023-01-08T01:06:45.276Z,93.49
2023-01-08T01:07:49.425Z,93.03
2023-01-08T01:08:51.387Z,93.81
2023-01-08T01:09:53.208Z,93.69
2023-01-08T01:10:55.013Z,93.73
2023-01-08T01:11:56.851Z,93.59
2023-01-08T01:12:58.645Z,94.11
2023-01-08T01:14:00.474Z,94.09
2023-01-08T01:15:02.322Z,93.99
2023-01-08T01:16:04.746Z,93.62
2023-01-08T01:17:06.623Z,93.91
2023-01-08T01:18:08.768Z,93.87
2023-01-08T01:19:10.848Z,93.91
2023-01-08T01:20:16.511Z,93.67
2023-01-08T01:21:21.419Z,93.52
2023-01-08T01:22:23.219Z,93.96
2023-01-08T01:23:25.029Z,94.38
2023-01-08T01:24:28.124Z,94.06
2023-01-08T01:25:29.901Z,93.67
2023-01-08T01:26:32.579Z,93.62
2023-01-08T01:27:34.400Z,92.96
2023-01-08T01:28:36.263Z,93.32
2023-01-08T01:29:38.068Z,93.16
2023-01-08T01:30:39.901Z,92.71
2023-01-08T01:31:41.832Z,93.10
2023-01-08T01:32:43.613Z,92.90
2023-01-08T01:33:45.707Z,93.26
2023-01-08T01:34:47.455Z,93.41
2023-01-08T01:35:49.299Z,93.17
2023-01-08T01:36:51.197Z,93.28
2023-01-08T01:37:52.974Z,93.70
2023-01-08T01:38:56.146Z,94.03
2023-01-08T01:39:58.440Z,93.30
2023-01-08T01:41:00.344Z,93.38
2023-01-08T01:42:02.238Z,93.60
2023-01-08T01:43:04.087Z,93.14
2023-01-08T01:44:24.444Z,93.53
2023-01-08T01:45:28.012Z,92.96
2023-01-08T01:46:32.526Z,92.66
2023-01-08T01:47:38.603Z,93.00
2023-01-08T01:48:40.370Z,93.24
2023-01-08T01:49:44.393Z,92.50
2023-01-08T01:50:47.557Z,92.95
2023-01-08T01:51:51.300Z,93.52
2023-01-08T01:53:05.732Z,93.28
2023-01-08T01:54:09.176Z,92.32
2023-01-08T01:55:14.719Z,92.35
2023-01-08T01:56:16.621Z,93.04
2023-01-08T01:57:18.779Z,92.40
2023-01-08T01:58:24.955Z,92.30
2023-01-08T01:59:26.873Z,92.70
2023-01-08T02:00:29.396Z,92.50
2023-01-08T02:01:32.167Z,92.37
2023-01-08T02:02:34.276Z,92.54
2023-01-08T02:03:37.938Z,92.08
2023-01-08T02:04:39.754Z,92.21
2023-01-08T02:05:47.420Z,92.35
2023-01-08T02:06:54.885Z,92.89
2023-01-08T02:08:02.089Z,93.16
2023-01-08T02:09:22.251Z,92.56
2023-01-08T02:10:37.563Z,93.08
2023-01-08T02:12:16.899Z,93.86
2023-01-08T02:13:23.301Z,93.79
2023-01-08T02:14:35.013Z,93.99
2023-01-08T02:15:52.008Z,94.37
2023-01-08T02:16:57.513Z,93.64
2023-01-08T02:18:10.096Z,93.60
2023-01-08T02:19:20.411Z,94.25
2023-01-08T02:20:29.875Z,94.36
2023-01-08T02:21:31.610Z,94.47
2023-01-08T02:22:33.423Z,94.24
2023-01-08T02:23:56.609Z,94.54
2023-01-08T02:25:01.509Z,94.25
2023-01-08T02:26:06.764Z,94.17
2023-01-08T02:27:09.319Z,93.98
2023-01-08T02:28:12.058Z,93.94
2023-01-08T02:29:19.292Z,93.74
2023-01-08T02:30:21.346Z,94.34
2023-01-08T02:31:24.740Z,93.61
2023-01-08T02:32:27.365Z,93.88
2023-01-08T02:33:30.021Z,94.16
2023-01-08T02:34:32.984Z,94.24
2023-01-08T02:35:40.753Z,93.27
2023-01-08T02:36:42.655Z,93.85
2023-01-08T02:37:44.575Z,93.80
2023-01-08T02:39:17.194Z,93.83
2023-01-08T02:40:27.734Z,93.87
2023-01-08T02:41:39.068Z,94.40
2023-01-08T02:42:43.703Z,94.14
2023-01-08T02:43:50.453Z,94.14
2023-01-08T02:44:56.079Z,93.80
2023-01-08T02:46:01.456Z,93.50
2023-01-08T02:47:06.225Z,93.46
2023-01-08T02:48:11.309Z,93.56
2023-01-08T02:49:14.190Z,93.90
2023-01-08T02:50:26.793Z,93.96
2023-01-08T02:51:31.059Z,93.35
2023-01-08T02:52:35.195Z,93.75
2023-01-08T02:53:40.005Z,93.67
2023-01-08T02:54:43.402Z,93.06
2023-01-08T02:55:47.915Z,93.23
2023-01-08T02:56:52.434Z,93.97
2023-01-08T02:57:54.335Z,93.88
2023-01-08T02:58:57.487Z,93.39
2023-01-08T02:59:59.299Z,94.16
2023-01-08T03:01:05.046Z,94.26
2023-01-08T03:02:07.764Z,93.44
2023-01-08T03:03:12.769Z,93.35
2023-01-08T03:04:16.796Z,93.81
2023-01-08T03:05:24.269Z,93.44
2023-01-08T03:06:27.939Z,94.07
2023-01-08T03:07:29.919Z,93.79
2023-01-08T03:08:34.314Z,93.82
2023-01-08T03:09:37.545Z,92.92
2023-01-08T03:10:41.773Z,92.96
2023-01-08T03:11:59.829Z,93.27
2023-01-08T03:13:11.950Z,93.09
2023-01-08T03:14:13.647Z,93.32
2023-01-08T03:15:19.979Z,92.91
2023-01-08T03:16:26.510Z,92.96
2023-01-08T03:17:32.941Z,92.60
2023-01-08T03:18:37.646Z,92.78
2023-01-08T03:19:44.877Z,92.43
2023-01-08T03:20:49.011Z,92.95
2023-01-08T03:21:51.803Z,92.44
2023-01-08T03:22:56.303Z,92.50
2023-01-08T03:23:58.179Z,93.03
2023-01-08T03:25:00.304Z,92.72
2023-01-08T03:26:04.086Z,92.89
2023-01-08T03:27:09.936Z,92.76
2023-01-08T03:28:23.396Z,92.95
2023-01-08T03:29:26.337Z,92.02
2023-01-08T03:30:29.693Z,92.23
2023-01-08T03:31:34.859Z,92.32
2023-01-08T03:32:37.264Z,92.52
2023-01-08T03:33:39.322Z,91.81
2023-01-08T03:34:42.452Z,91.84
2023-01-08T03:35:45.444Z,91.92
2023-01-08T03:36:48.800Z,92.17
2023-01-08T03:38:03.873Z,92.32
2023-01-08T03:39:08.420Z,91.70
2023-01-08T03:40:14.180Z,91.43
2023-01-08T03:41:19.411Z,91.29
2023-01-08T03:42:21.887Z,91.60
2023-01-08T03:43:23.872Z,91.65
2023-01-08T03:44:25.909Z,90.54
2023-01-08T03:45:30.496Z,90.88
2023-01-08T03:46:33.662Z,90.38
2023-01-08T03:47:36.788Z,90.70
2023-01-08T03:48:39.242Z,90.45
2023-01-08T03:49:43.308Z,90.16
2023-01-08T03:50:45.267Z,90.24
2023-01-08T03:51:47.980Z,90.29
2023-01-08T03:52:49.780Z,90.24
2023-01-08T03:53:53.748Z,90.43
2023-01-08T03:54:55.626Z,89.78
2023-01-08T03:55:57.976Z,90.17
2023-01-08T03:56:59.888Z,90.38
2023-01-08T03:58:01.820Z,90.25
2023-01-08T03:59:03.672Z,89.66
2023-01-08T04:00:06.312Z,89.83
2023-01-08T04:01:08.246Z,89.43
2023-01-08T04:02:10.414Z,89.76
2023-01-08T04:03:12.353Z,90.24
2023-01-08T04:04:14.388Z,90.36
2023-01-08T04:05:16.271Z,90.07
2023-01-08T04:06:18.060Z,90.31
2023-01-08T04:07:19.913Z,90.02
2023-01-08T04:08:21.758Z,89.73
2023-01-08T04:09:23.937Z,90.09
2023-01-08T04:10:25.941Z,90.05
2023-01-08T04:11:27.884Z,89.64
2023-01-08T04:12:29.819Z,89.35
2023-01-08T04:13:31.644Z,89.46
2023-01-08T04:14:33.498Z,89.84
2023-01-08T04:15:35.342Z,89.11
2023-01-08T04:16:37.163Z,89.30
2023-01-08T04:17:39.127Z,89.31
2023-01-08T04:18:40.956Z,88.95
2023-01-08T04:19:42.803Z,89.49
2023-01-08T04:20:48.561Z,89.42
2023-01-08T04:21:51.871Z,89.71
2023-01-08T04:22:53.659Z,89.87
2023-01-08T04:23:56.075Z,89.89
2023-01-08T04:24:58.004Z,89.87
2023-01-08T04:25:59.847Z,89.51
2023-01-08T04:27:01.808Z,89.47
2023-01-08T04:28:03.717Z,89.20
2023-01-08T04:29:05.646Z,89.74
2023-01-08T04:30:07.888Z,89.32
2023-01-08T04:31:10.047Z,89.42
2023-01-08T04:32:12.004Z,89.57
2023-01-08T04:33:14.125Z,89.12
2023-01-08T04:34:15.941Z,88.70
2023-01-08T04:35:17.753Z,88.50
2023-01-08T04:36:19.630Z,89.09
2023-01-08T04:37:21.595Z,89.21
2023-01-08T04:38:23.684Z,89.27
2023-01-08T04:39:25.531Z,88.67
2023-01-08T04:40:27.509Z,89.12
2023-01-08T04:41:29.352Z,88.67
2023-01-08T04:42:31.183Z,88.57
2023-01-08T04:43:33.326Z,89.17
2023-01-08T04:44:35.138Z,88.69
2023-01-08T04:45:36.902Z,88.41
2023-01-08T04:46:38.817Z,88.97
2023-01-08T04:47:40.695Z,89.05
2023-01-08T04:48:42.501Z,89.09
2023-01-08T04:49:44.333Z,88.71
2023-01-08T04:50:46.126Z,88.82
2023-01-08T04:51:47.993Z,88.76
2023-01-08T04:52:49.779Z,89.03
2023-01-08T04:53:51.661Z,88.77
2023-01-08T04:54:53.492Z,88.31
2023-01-08T04:55:55.320Z,88.83
2023-01-08T04:56:57.167Z,88.91
2023-01-08T04:57:59.093Z,88.65
2023-01-08T04:59:00.936Z,88.74
2023-01-08T05:00:02.778Z,89.28
2023-01-08T05:01:21.294Z,88.76
2023-01-08T05:02:23.433Z,88.89
2023-01-08T05:03:25.467Z,89.37
2023-01-08T05:04:27.420Z,88.66
2023-01-08T05:05:29.229Z,88.88
2023-01-08T05:06:31.993Z,88.90
2023-01-08T05:07:33.834Z,88.59
2023-01-08T05:08:36.115Z,89.15
2023-01-08T05:09:37.979Z,88.50
2023-01-08T05:10:39.903Z,88.82
2023-01-08T05:11:43.459Z,89.47
2023-01-08T05:12:45.242Z,89.54
2023-01-08T05:13:50.361Z,89.90
2023-01-08T05:14:52.274Z,90.09
2023-01-08T05:15:54.105Z,90.81
2023-01-08T05:16:55.945Z,91.24
2023-01-08T05:17:58.926Z,91.37
2023-01-08T05:19:00.688Z,90.60
2023-01-08T05:20:02.571Z,90.89
2023-01-08T05:21:05.631Z,90.80
2023-01-08T05:22:07.483Z,90.32
2023-01-08T05:23:09.343Z,91.00
2023-01-08T05:24:11.197Z,90.40
2023-01-08T05:25:13.131Z,90.15
2023-01-08T05:26:15.536Z,90.42
2023-01-08T05:27:17.630Z,90.69
2023-01-08T05:28:19.510Z,90.40
2023-01-08T05:29:21.399Z,90.15
2023-01-08T05:30:23.209Z,90.43
2023-01-08T05:31:25.089Z,90.75
2023-01-08T05:32:26.973Z,90.79
2023-01-08T05:33:28.893Z,90.98
2023-01-08T05:34:30.748Z,91.15
2023-01-08T05:35:32.648Z,91.42
2023-01-08T05:36:34.476Z,91.40
2023-01-08T05:37:36.878Z,91.37
2023-01-08T05:38:39.251Z,91.48
2023-01-08T05:39:41.052Z,91.94
2023-01-08T05:40:42.912Z,91.35
2023-01-08T05:41:44.778Z,91.96
2023-01-08T05:42:46.661Z,91.55
2023-01-08T05:43:48.646Z,91.38
2023-01-08T05:44:50.490Z,91.24
2023-01-08T05:45:52.546Z,91.69
2023-01-08T05:46:54.518Z,91.37
2023-01-08T05:47:56.432Z,91.36
2023-01-08T05:48:58.316Z,91.45
2023-01-08T05:50:00.227Z,90.98
2023-01-08T05:51:02.223Z,91.52
2023-01-08T05:52:04.089Z,91.02
2023-01-08T05:53:09.478Z,90.90
2023-01-08T05:54:11.317Z,90.34
2023-01-08T05:55:13.171Z,90.55
2023-01-08T05:56:15.236Z,91.27
2023-01-08T05:57:17.091Z,90.73
2023-01-08T05:58:19.480Z,90.37
2023-01-08T05:59:21.352Z,90.62
2023-01-08T06:00:24.671Z,90.70
2023-01-08T06:01:26.665Z,89.98
2023-01-08T06:02:28.451Z,90.05
2023-01-08T06:03:30.245Z,89.82
2023-01-08T06:04:32.189Z,90.22
2023-01-08T06:05:34.046Z,90.12
2023-01-08T06:06:35.839Z,89.56
2023-01-08T06:07:37.666Z,89.49
2023-01-08T06:08:39.853Z,89.61
2023-01-08T06:09:41.755Z,90.04
2023-01-08T06:10:43.592Z,89.40
2023-01-08T06:11:45.430Z,90.04
2023-01-08T06:12:47.312Z,89.57
2023-01-08T06:13:49.151Z,90.20
2023-01-08T06:14:51.066Z,90.18
2023-01-08T06:15:53.151Z,89.58
2023-01-08T06:16:54.986Z,89.59
2023-01-08T06:17:57.518Z,89.40
2023-01-08T06:18:59.292Z,89.87
2023-01-08T06:20:01.232Z,90.29
2023-01-08T06:21:03.066Z,89.57
2023-01-08T06:22:05.107Z,90.21
2023-01-08T06:23:08.958Z,89.94
2023-01-08T06:24:10.925Z,90.32
2023-01-08T06:25:13.315Z,90.27
2023-01-08T06:26:15.173Z,89.92
2023-01-08T06:27:17.066Z,89.62
2023-01-08T06:28:18.894Z,90.08
2023-01-08T06:29:20.756Z,89.56
2023-01-08T06:30:22.873Z,89.62
2023-01-08T06:31:24.718Z,89.72
2023-01-08T06:32:26.479Z,89.66
2023-01-08T06:33:28.818Z,90.17
2023-01-08T06:34:30.720Z,89.82
2023-01-08T06:35:32.607Z,89.85
2023-01-08T06:36:34.485Z,89.16
2023-01-08T06:37:36.317Z,88.91
2023-01-08T06:38:38.030Z,88.84
2023-01-08T06:39:39.831Z,89.52
2023-01-08T06:40:41.785Z,89.10
2023-01-08T06:41:44.619Z,89.25
2023-01-08T06:42:46.706Z,88.96
2023-01-08T06:43:48.528Z,88.76
2023-01-08T06:44:50.340Z,89.30
2023-01-08T06:45:55.536Z,89.36
2023-01-08T06:46:57.325Z,88.90
2023-01-08T06:48:02.734Z,88.72
2023-01-08T06:49:04.541Z,88.77
2023-01-08T06:50:07.275Z,89.04
2023-01-08T06:51:09.147Z,88.64
2023-01-08T06:52:11.290Z,88.41
2023-01-08T06:53:13.107Z,88.98
2023-01-08T06:54:14.927Z,88.53
2023-01-08T06:55:16.744Z,88.92
2023-01-08T06:56:18.622Z,88.68
2023-01-08T06:57:20.527Z,88.32
2023-01-08T06:58:22.917Z,88.61
2023-01-08T06:59:24.857Z,88.80
2023-01-08T07:00:27.533Z,88.86
2023-01-08T07:01:29.532Z,88.61
2023-01-08T07:02:31.520Z,88.58
2023-01-08T07:03:33.536Z,88.01
2023-01-08T07:04:35.446Z,87.97
2023-01-08T07:05:37.339Z,87.79
2023-01-08T07:06:39.292Z,88.03
2023-01-08T07:07:41.213Z,88.33
2023-01-08T07:08:43.759Z,88.43
2023-01-08T07:09:45.651Z,87.74
2023-01-08T07:10:47.459Z,88.18
2023-01-08T07:11:49.352Z,88.15
2023-01-08T07:12:51.179Z,88.08
2023-01-08T07:13:53.082Z,88.50
2023-01-08T07:14:54.840Z,88.16
2023-01-08T07:15:56.767Z,88.80
2023-01-08T07:16:58.678Z,89.00
2023-01-08T07:18:00.446Z,88.77
2023-01-08T07:19:02.338Z,88.49
2023-01-08T07:20:04.319Z,88.75
2023-01-08T07:21:06.889Z,88.15
2023-01-08T07:22:08.827Z,89.11
2023-01-08T07:23:11.130Z,88.07
2023-01-08T07:24:13.054Z,88.61
2023-01-08T07:25:14.902Z,88.29
2023-01-08T07:26:16.838Z,89.35
2023-01-08T07:27:19.466Z,89.42
2023-01-08T07:28:21.274Z,88.92
2023-01-08T07:29:23.203Z,89.61
2023-01-08T07:30:30.221Z,89.25
2023-01-08T07:31:32.529Z,89.50
2023-01-08T07:32:34.433Z,88.90
2023-01-08T07:33:36.354Z,89.20
2023-01-08T07:34:38.215Z,89.08
2023-01-08T07:35:40.063Z,89.21
2023-01-08T07:36:41.908Z,90.06
2023-01-08T07:37:43.918Z,89.95
2023-01-08T07:38:45.688Z,89.93
2023-01-08T07:39:47.531Z,89.33
2023-01-08T07:40:49.547Z,89.86
2023-01-08T07:41:51.314Z,89.42
2023-01-08T07:43:03.686Z,89.30
2023-01-08T07:44:05.567Z,89.83
2023-01-08T07:45:08.516Z,89.35
2023-01-08T07:46:10.824Z,89.73
2023-01-08T07:47:12.582Z,90.05
2023-01-08T07:48:18.104Z,89.86
2023-01-08T07:49:19.958Z,90.08
2023-01-08T07:50:21.841Z,89.75
2023-01-08T07:51:23.826Z,90.33
2023-01-08T07:52:27.779Z,90.25
2023-01-08T07:53:29.818Z,89.70
2023-01-08T07:54:31.668Z,89.31
2023-01-08T07:55:33.550Z,89.39
2023-01-08T07:56:35.362Z,89.71
2023-01-08T07:57:37.369Z,89.51
2023-01-08T07:58:39.343Z,90.01
2023-01-08T07:59:41.245Z,90.03
2023-01-08T08:00:43.044Z,89.42
2023-01-08T08:01:45.052Z,89.00
2023-01-08T08:02:47.081Z,89.41
2023-01-08T08:03:48.985Z,89.38
2023-01-08T08:04:51.070Z,89.10
2023-01-08T08:05:53.181Z,89.42
2023-01-08T08:06:55.589Z,88.78
2023-01-08T08:07:57.497Z,88.38
2023-01-08T08:09:00.264Z,88.94
2023-01-08T08:10:02.908Z,88.82
2023-01-08T08:11:04.899Z,88.59
2023-01-08T08:12:06.854Z,88.25
2023-01-08T08:13:09.091Z,88.34
2023-01-08T08:14:10.876Z,88.42
2023-01-08T08:15:12.738Z,87.75
2023-01-08T08:16:14.651Z,87.63
2023-01-08T08:17:16.578Z,87.79
2023-01-08T08:18:18.433Z,87.89
2023-01-08T08:19:20.620Z,87.94
2023-01-08T08:20:22.458Z,88.28
2023-01-08T08:21:24.420Z,87.81
2023-01-08T08:22:26.790Z,87.63
2023-01-08T08:23:28.761Z,87.80
2023-01-08T08:24:30.654Z,87.52
2023-01-08T08:25:32.480Z,87.93
2023-01-08T08:26:34.331Z,87.53
2023-01-08T08:27:36.355Z,87.41
2023-01-08T08:28:38.193Z,87.44
2023-01-08T08:29:39.988Z,87.63
2023-01-08T08:30:42.769Z,87.69
2023-01-08T08:31:44.789Z,87.62
2023-01-08T08:32:46.690Z,87.75
2023-01-08T08:33:48.543Z,87.98
2023-01-08T08:34:51.122Z,88.00
2023-01-08T08:35:52.885Z,88.29
2023-01-08T08:36:54.703Z,87.61
2023-01-08T08:37:57.313Z,88.02
2023-01-08T08:38:59.172Z,88.18
2023-01-08T08:40:01.026Z,88.30
2023-01-08T08:41:02.907Z,87.48
2023-01-08T08:42:04.841Z,87.78
2023-01-08T08:43:06.662Z,87.23
2023-01-08T08:44:08.774Z,87.66
2023-01-08T08:45:10.660Z,87.48
2023-01-08T08:46:12.575Z,87.63
2023-01-08T08:47:15.013Z,87.40
2023-01-08T08:48:17.260Z,87.77
2023-01-08T08:49:19.078Z,87.89
2023-01-08T08:50:21.544Z,88.22
2023-01-08T08:51:23.406Z,88.42
2023-01-08T08:52:25.197Z,88.37
2023-01-08T08:53:27.769Z,87.91
2023-01-08T08:54:29.715Z,88.08
2023-01-08T08:55:31.548Z,88.24
2023-01-08T08:56:33.545Z,88.70
2023-01-08T08:57:35.399Z,88.64
2023-01-08T08:58:37.247Z,88.26
2023-01-08T08:59:39.070Z,88.83
2023-01-08T09:00:41.752Z,88.21
2023-01-08T09:01:43.695Z,88.64
2023-01-08T09:02:45.791Z,87.97
2023-01-08T09:03:47.686Z,88.06
2023-01-08T09:04:49.512Z,88.20
2023-01-08T09:05:51.376Z,88.09
2023-01-08T09:06:53.282Z,88.08
2023-01-08T09:07:55.183Z,88.21
2023-01-08T09:08:57.042Z,87.81
2023-01-08T09:09:58.903Z,88.17
2023-01-08T09:11:02.605Z,88.30
2023-01-08T09:12:04.552Z,87.59
2023-01-08T09:13:06.505Z,88.09
2023-01-08T09:14:08.350Z,87.72
2023-01-08T09:15:10.363Z,87.26
2023-01-08T09:16:12.242Z,87.51
2023-01-08T09:17:14.087Z,87.51
2023-01-08T09:18:16.156Z,87.94
2023-01-08T09:19:18.126Z,87.67
2023-01-08T09:20:20.016Z,87.91
2023-01-08T09:21:21.945Z,87.46
2023-01-08T09:22:23.823Z,87.48
2023-01-08T09:23:25.758Z,87.70
2023-01-08T09:24:27.582Z,87.48
2023-01-08T09:25:30.275Z,87.61
2023-01-08T09:26:32.173Z,87.48
2023-01-08T09:27:34.082Z,87.43
2023-01-08T09:28:35.893Z,87.83
2023-01-08T09:29:37.710Z,87.55
2023-01-08T09:30:40.088Z,87.40
2023-01-08T09:31:41.955Z,87.63
2023-01-08T09:32:43.912Z,87.63
2023-01-08T09:33:47.726Z,88.05
2023-01-08T09:34:49.543Z,88.09
2023-01-08T09:35:51.394Z,88.14
2023-01-08T09:36:53.194Z,88.30
2023-01-08T09:37:56.165Z,87.83
2023-01-08T09:38:58.002Z,87.98
2023-01-08T09:40:02.551Z,87.89
2023-01-08T09:41:08.045Z,88.14
2023-01-08T09:42:12.160Z,88.12
2023-01-08T09:43:21.378Z,87.87
2023-01-08T09:44:26.736Z,87.73
2023-01-08T09:45:30.292Z,88.12
2023-01-08T09:46:32.344Z,87.75
2023-01-08T09:47:43.453Z,88.10
2023-01-08T09:48:45.820Z,88.13
2023-01-08T09:49:48.388Z,88.11
2023-01-08T09:50:50.457Z,88.16
2023-01-08T09:51:52.642Z,88.13
2023-01-08T09:52:55.329Z,87.96
2023-01-08T09:53:58.054Z,87.85
2023-01-08T09:55:02.803Z,88.14
2023-01-08T09:56:10.904Z,88.17
2023-01-08T09:57:20.834Z,88.42
2023-01-08T09:58:50.828Z,88.58
2023-01-08T09:59:52.778Z,88.44
2023-01-08T10:00:54.746Z,88.71
2023-01-08T10:01:56.655Z,88.31
2023-01-08T10:02:58.675Z,88.38
2023-01-08T10:04:04.703Z,88.14
2023-01-08T10:05:11.901Z,88.20
2023-01-08T10:06:14.867Z,88.72
2023-01-08T10:07:24.799Z,88.69
2023-01-08T10:08:26.638Z,89.01
2023-01-08T10:09:29.916Z,89.02
2023-01-08T10:10:32.847Z,88.82
2023-01-08T10:11:42.617Z,88.57
2023-01-08T10:12:44.614Z,88.50
2023-01-08T10:13:57.380Z,88.80
2023-01-08T10:15:03.765Z,88.52
2023-01-08T10:16:10.565Z,88.56
2023-01-08T10:17:21.389Z,88.77
2023-01-08T10:18:25.762Z,88.86
2023-01-08T10:19:27.509Z,88.55
2023-01-08T10:20:29.913Z,88.22
2023-01-08T10:21:33.479Z,88.02
2023-01-08T10:22:35.489Z,88.42
2023-01-08T10:23:37.429Z,88.51
2023-01-08T10:24:39.999Z,88.41
2023-01-08T10:26:07.834Z,88.29
2023-01-08T10:27:17.501Z,88.30
2023-01-08T10:28:23.976Z,88.48
2023-01-08T10:29:25.899Z,88.07
2023-01-08T10:30:33.565Z,88.47
2023-01-08T10:31:39.495Z,88.25
2023-01-08T10:32:47.673Z,87.92
2023-01-08T10:33:50.080Z,88.06
2023-01-08T10:34:56.233Z,88.19
2023-01-08T10:36:00.461Z,87.79
2023-01-08T10:37:14.173Z,87.58
2023-01-08T10:38:26.115Z,88.12
2023-01-08T10:39:29.990Z,87.58
2023-01-08T10:40:34.792Z,87.72
2023-01-08T10:41:40.626Z,87.74
2023-01-08T10:42:42.640Z,88.12
2023-01-08T10:44:03.726Z,87.76
2023-01-08T10:45:08.106Z,87.58
2023-01-08T10:46:15.243Z,87.44
2023-01-08T10:47:18.409Z,87.32
2023-01-08T10:48:20.847Z,87.12
2023-01-08T10:49:43.993Z,87.23
2023-01-08T10:50:45.884Z,87.40
2023-01-08T10:51:53.801Z,87.72
2023-01-08T10:52:57.213Z,87.25
2023-01-08T10:54:01.352Z,87.37
2023-01-08T10:55:32.260Z,87.46
2023-01-08T10:56:41.764Z,87.54
2023-01-08T10:57:52.791Z,87.84
2023-01-08T10:58:55.275Z,87.92
2023-01-08T10:59:57.245Z,87.47
2023-01-08T11:01:20.210Z,86.96
2023-01-08T11:02:38.276Z,87.27
2023-01-08T11:03:41.029Z,87.20
2023-01-08T11:04:43.902Z,87.23
2023-01-08T11:05:46.287Z,87.38
2023-01-08T11:06:48.451Z,87.33
2023-01-08T11:07:56.394Z,87.67
2023-01-08T11:09:00.217Z,88.05
2023-01-08T11:10:02.905Z,87.84
2023-01-08T11:11:06.780Z,87.88
2023-01-08T11:12:27.207Z,88.16
2023-01-08T11:13:29.803Z,88.04
2023-01-08T11:14:35.338Z,88.50
2023-01-08T11:15:43.874Z,88.12
2023-01-08T11:16:46.934Z,88.14
2023-01-08T11:17:48.878Z,87.94
2023-01-08T11:18:52.033Z,87.35
2023-01-08T11:19:55.795Z,87.62
2023-01-08T11:21:08.786Z,87.64
2023-01-08T11:22:21.655Z,87.62
2023-01-08T11:23:25.116Z,87.60
2023-01-08T11:24:37.158Z,87.62
2023-01-08T11:25:41.017Z,87.39
2023-01-08T11:26:46.264Z,86.97
2023-01-08T11:27:48.767Z,87.50
2023-01-08T11:28:53.679Z,87.60
2023-01-08T11:30:18.782Z,87.28
2023-01-08T11:31:46.922Z,87.27
2023-01-08T11:33:10.037Z,87.15
2023-01-08T11:34:32.078Z,87.22
2023-01-08T11:35:39.556Z,87.22
2023-01-08T11:36:47.274Z,87.29
2023-01-08T11:38:00.236Z,87.09
2023-01-08T11:39:02.664Z,87.16
2023-01-08T11:40:11.829Z,86.60
2023-01-08T11:41:24.146Z,86.83
2023-01-08T11:42:41.911Z,87.21
2023-01-08T11:43:43.694Z,87.20
2023-01-08T11:44:57.400Z,87.31
2023-01-08T11:46:14.952Z,87.35
2023-01-08T11:47:31.883Z,86.73
2023-01-08T11:48:48.084Z,86.42
2023-01-08T11:50:05.481Z,86.94
2023-01-08T11:51:09.982Z,86.76
2023-01-08T11:52:14.299Z,87.00
2023-01-08T11:53:21.706Z,87.32
2023-01-08T11:54:26.660Z,87.02
2023-01-08T11:55:32.520Z,86.83
2023-01-08T11:56:36.879Z,86.65
2023-01-08T11:57:53.880Z,86.86
2023-01-08T11:59:13.500Z,87.18
2023-01-08T12:00:24.854Z,86.95
2023-01-08T12:01:35.101Z,86.46
2023-01-08T12:02:39.429Z,86.57
2023-01-08T12:03:47.363Z,86.88
2023-01-08T12:05:00.911Z,86.70
2023-01-08T12:06:13.840Z,86.47
2023-01-08T12:07:21.304Z,86.97
2023-01-08T12:08:28.997Z,86.56
2023-01-08T12:09:40.295Z,86.58
2023-01-08T12:10:45.083Z,87.05
2023-01-08T12:11:50.017Z,86.37
2023-01-08T12:12:58.024Z,86.63
2023-01-08T12:14:06.687Z,86.63
2023-01-08T12:15:26.986Z,86.39
2023-01-08T12:16:52.572Z,86.35
2023-01-08T12:18:05.036Z,86.52
2023-01-08T12:19:25.793Z,87.03
2023-01-08T12:20:30.116Z,86.97
2023-01-08T12:21:33.331Z,85.88
2023-01-08T12:22:47.376Z,86.06
2023-01-08T12:23:52.465Z,86.29
2023-01-08T12:25:13.090Z,86.29
2023-01-08T12:26:33.540Z,86.36
2023-01-08T12:27:55.825Z,86.01
2023-01-08T12:28:57.118Z,86.02
2023-01-08T12:30:06.669Z,85.95
2023-01-08T12:31:21.893Z,86.07
2023-01-08T12:32:27.537Z,85.86
2023-01-08T12:33:42.738Z,85.85
2023-01-08T12:35:01.820Z,85.33
2023-01-08T12:36:06.925Z,85.68
2023-01-08T12:37:15.045Z,85.29
2023-01-08T12:38:24.509Z,84.50
2023-01-08T12:39:31.590Z,85.24
2023-01-08T12:40:40.425Z,85.19
2023-01-08T12:41:43.834Z,84.34
2023-01-08T12:42:50.288Z,84.75
2023-01-08T12:44:01.377Z,84.02
2023-01-08T12:45:04.694Z,83.59
2023-01-08T12:46:07.020Z,84.22
2023-01-08T12:47:13.903Z,83.89
2023-01-08T12:48:17.145Z,83.93
2023-01-08T12:49:26.191Z,83.59
2023-01-08T12:50:35.063Z,83.13
2023-01-08T12:51:53.775Z,82.51
2023-01-08T12:52:55.536Z,83.09
2023-01-08T12:54:15.834Z,82.76
2023-01-08T12:55:27.828Z,82.66
2023-01-08T12:57:03.253Z,83.12
2023-01-08T12:58:30.778Z,80.77
2023-01-08T12:59:51.404Z,81.08
2023-01-08T13:01:13.600Z,82.64
2023-01-08T13:02:41.536Z,82.57
2023-01-08T13:03:44.049Z,83.37
2023-01-08T13:04:47.264Z,82.66
2023-01-08T13:05:49.614Z,82.35
2023-01-08T13:06:57.333Z,82.38
2023-01-08T13:08:01.143Z,83.13
2023-01-08T13:09:03.280Z,82.91
2023-01-08T13:10:09.507Z,81.45
2023-01-08T13:11:11.367Z,81.72
2023-01-08T13:12:14.904Z,80.99
2023-01-08T13:13:33.420Z,80.10
2023-01-08T13:14:47.332Z,80.28
2023-01-08T13:15:49.291Z,78.58
2023-01-08T13:17:11.215Z,77.85
2023-01-08T13:18:18.201Z,78.24
2023-01-08T13:19:27.870Z,79.06
2023-01-08T13:20:30.886Z,77.77
2023-01-08T13:21:34.981Z,76.43
2023-01-08T13:22:37.626Z,75.53
2023-01-08T13:23:39.725Z,76.38
2023-01-08T13:24:42.985Z,76.60
2023-01-08T13:25:52.647Z,77.50
2023-01-08T13:26:54.628Z,77.07
2023-01-08T13:27:56.656Z,76.04
2023-01-08T13:29:08.895Z,77.08
2023-01-08T13:30:30.792Z,76.21
2023-01-08T13:31:39.332Z,75.93
2023-01-08T13:32:59.182Z,77.16
2023-01-08T13:34:00.878Z,77.66
2023-01-08T13:35:02.573Z,77.86
2023-01-08T13:36:24.227Z,76.30
2023-01-08T13:37:27.929Z,75.65
2023-01-08T13:38:29.895Z,75.19
2023-01-08T13:39:33.922Z,75.15
2023-01-08T13:40:44.656Z,76.87
2023-01-08T13:41:57.865Z,76.32
2023-01-08T13:43:00.143Z,75.91
2023-01-08T13:44:05.345Z,76.56
2023-01-08T13:45:07.757Z,77.31
2023-01-08T13:46:20.186Z,76.98
2023-01-08T13:47:25.069Z,77.29
2023-01-08T13:48:29.884Z,77.26
2023-01-08T13:49:51.948Z,76.12
2023-01-08T13:50:53.948Z,77.46
2023-01-08T13:51:56.025Z,77.37